createdAt,value
2022-09-17T00:02:55.545Z,7.8
2022-09-17T00:08:55.649Z,7.9
2022-09-17T00:14:55.159Z,7.8
2022-09-17T00:20:55.656Z,7.9
2022-09-17T00:26:55.776Z,7.9
2022-09-17T00:32:55.760Z,8
2022-09-17T00:38:56.017Z,8
2022-09-17T00:44:55.624Z,7.9
2022-09-17T00:50:55.277Z,8.2
2022-09-17T00:56:55.602Z,8.2
2022-09-17T01:02:55.992Z,8.3
2022-09-17T01:08:54.557Z,8.3
2022-09-17T01:14:54.321Z,8.3
2022-09-17T01:20:54.331Z,8.3
2022-09-17T01:26:54.427Z,8.2
2022-09-17T01:32:54.554Z,8.2
2022-09-17T01:38:54.500Z,8.3
2022-09-17T01:44:54.837Z,8.4
2022-09-17T01:50:54.605Z,8.4
2022-09-17T01:56:54.903Z,8.4
2022-09-17T02:02:54.582Z,8.4
2022-09-17T02:08:54.542Z,8.4
2022-09-17T02:14:54.932Z,8.4
2022-09-17T02:20:55.715Z,8.4
2022-09-17T02:26:54.430Z,8.4
2022-09-17T02:32:54.713Z,8.4
2022-09-17T02:38:54.975Z,8.3
2022-09-17T02:44:55.263Z,8.4
2022-09-17T02:50:54.355Z,8.4
2022-09-17T02:56:54.243Z,8.6
2022-09-17T03:02:54.356Z,8.4
2022-09-17T03:08:55.766Z,8.5
2022-09-17T03:14:54.913Z,8.5
2022-09-17T03:20:55.829Z,8.5
2022-09-17T03:26:56.215Z,8.6
2022-09-17T03:32:55.550Z,8.7
2022-09-17T03:38:55.778Z,8.6
2022-09-17T03:44:55.712Z,8.5
2022-09-17T03:50:54.761Z,8.7
2022-09-17T03:56:55.909Z,8.8
2022-09-17T04:02:55.287Z,8.7
2022-09-17T04:08:56.030Z,8.7
2022-09-17T04:14:56.082Z,8.6
2022-09-17T04:20:55.154Z,8.7
2022-09-17T04:26:54.935Z,8.7
2022-09-17T04:32:54.850Z,8.7
2022-09-17T04:38:54.649Z,8.7
2022-09-17T04:44:54.939Z,8.7
2022-09-17T04:50:55.814Z,8.7
2022-09-17T04:56:54.968Z,8.8
2022-09-17T05:02:54.930Z,8.7
2022-09-17T05:08:56.227Z,8.5
2022-09-17T05:14:54.871Z,8.6
2022-09-17T05:20:56.059Z,8.4
2022-09-17T05:26:57.025Z,8.5
2022-09-17T05:32:56.280Z,8.4
2022-09-17T05:38:55.656Z,8.4
2022-09-17T05:44:55.233Z,8.4
2022-09-17T05:50:56.551Z,8.5
2022-09-17T05:56:55.061Z,8.5
2022-09-17T06:02:55.782Z,8.6
2022-09-17T06:08:54.986Z,8.5
2022-09-17T06:14:55.528Z,8.5
2022-09-17T06:20:56.480Z,8.6
2022-09-17T06:26:55.620Z,8.6
2022-09-17T06:32:54.526Z,8.7
2022-09-17T06:38:54.694Z,8.8
2022-09-17T06:44:58.686Z,8.8
2022-09-17T06:50:55.250Z,8.8
2022-09-17T06:56:54.719Z,8.9
2022-09-17T07:02:54.800Z,8.8
2022-09-17T07:08:56.339Z,8.8
2022-09-17T07:14:55.223Z,8.6
2022-09-17T07:20:55.022Z,8.6
2022-09-17T07:26:56.065Z,8.3
2022-09-17T07:32:55.731Z,8.2
2022-09-17T07:38:56.584Z,8.3
2022-09-17T07:44:59.905Z,8.3
2022-09-17T07:50:54.594Z,8.3
2022-09-17T07:56:55.360Z,8.4
2022-09-17T08:02:55.511Z,8.3
2022-09-17T08:08:55.855Z,8.6
2022-09-17T08:14:56.295Z,8.4
2022-09-17T08:20:56.402Z,8.4
2022-09-17T08:26:56.761Z,8.4
2022-09-17T08:32:55.686Z,8.5
2022-09-17T08:38:54.605Z,8.3
2022-09-17T08:44:58.546Z,8.6
2022-09-17T08:51:00.240Z,8.2
2022-09-17T08:56:54.269Z,8.3
2022-09-17T09:02:54.650Z,8.3
2022-09-17T09:08:54.436Z,7.9
2022-09-17T09:14:55.320Z,8
2022-09-17T09:20:54.491Z,8.1
2022-09-17T09:26:58.509Z,8.1
2022-09-17T09:32:54.283Z,8.3
2022-09-17T09:38:54.996Z,8.4
2022-09-17T09:44:54.565Z,7.7
2022-09-17T09:51:06.163Z,7.7
2022-09-17T09:56:54.217Z,7.5
2022-09-17T10:02:55.277Z,7.4
2022-09-17T10:08:55.481Z,7.6
2022-09-17T10:14:54.703Z,7.7
2022-09-17T10:20:54.504Z,7.8
2022-09-17T10:26:55.309Z,7.8
2022-09-17T10:32:55.761Z,7.9
2022-09-17T10:38:55.299Z,7.4
2022-09-17T10:44:54.368Z,7.2
2022-09-17T10:50:54.471Z,7.1
2022-09-17T10:56:54.434Z,7.2
2022-09-17T11:02:54.402Z,7.2
2022-09-17T11:08:54.234Z,7.2
2022-09-17T11:14:54.368Z,7.6
2022-09-17T11:20:54.258Z,7.5
2022-09-17T11:29:54.257Z,7.5
2022-09-17T11:35:54.376Z,7.5
2022-09-17T11:41:54.786Z,7.5
2022-09-17T11:47:54.919Z,7.2
2022-09-17T11:53:54.522Z,7.4
2022-09-17T11:59:54.371Z,6.4
2022-09-17T12:05:54.467Z,6.7
2022-09-17T12:11:54.509Z,7.1
2022-09-17T12:18:08.643Z,8.4
2022-09-17T12:23:54.377Z,9.3
2022-09-17T12:29:58.286Z,9.3
2022-09-17T12:36:09.814Z,10.3
2022-09-17T12:41:54.342Z,10.3
2022-09-17T12:47:54.528Z,10.3
2022-09-17T12:53:54.375Z,10.3
2022-09-17T12:59:54.318Z,10.6
2022-09-17T13:05:54.462Z,9.9
2022-09-17T13:11:54.952Z,9.8
2022-09-17T13:18:12.823Z,9.6
2022-09-17T13:23:54.595Z,10
2022-09-17T13:29:56.572Z,10.1
2022-09-17T13:35:54.355Z,10.2
2022-09-17T13:41:54.478Z,10.5
2022-09-17T13:47:54.687Z,9.5
2022-09-17T13:53:54.407Z,8.8
2022-09-17T13:59:54.520Z,8.2
2022-09-17T14:05:54.214Z,8.2
2022-09-17T14:11:54.260Z,8.2
2022-09-17T14:17:54.497Z,8.2
2022-09-17T14:23:54.372Z,8.2
2022-09-17T14:29:54.318Z,9
2022-09-17T14:35:54.506Z,10.2
2022-09-17T14:41:54.450Z,11.3
2022-09-17T14:47:55.421Z,11.6
2022-09-17T14:53:54.520Z,11.8
2022-09-17T14:59:54.774Z,11.2
2022-09-17T15:05:54.454Z,10.3
2022-09-17T15:11:54.739Z,9.9
2022-09-17T15:17:54.633Z,9.4
2022-09-17T15:23:54.732Z,10.3
2022-09-17T15:29:54.628Z,10.4
2022-09-17T15:35:54.586Z,10.1
2022-09-17T15:41:54.873Z,10.1
2022-09-17T15:47:54.556Z,10.1
2022-09-17T15:53:54.721Z,9.6
2022-09-17T15:59:54.444Z,9.6
2022-09-17T16:05:57.409Z,9.6
2022-09-17T16:11:54.312Z,9.9
2022-09-17T16:17:54.575Z,9.8
2022-09-17T16:23:56.087Z,10.3
2022-09-17T16:29:54.717Z,12.4
2022-09-17T16:35:54.809Z,11.1
2022-09-17T16:41:54.797Z,10.9
2022-09-17T16:47:55.507Z,10.4
2022-09-17T16:53:54.746Z,9.9
2022-09-17T16:59:56.226Z,9.7
2022-09-17T17:05:54.612Z,9.9
2022-09-17T17:11:55.424Z,10
2022-09-17T17:17:58.278Z,9.9
2022-09-17T17:23:54.783Z,9.7
2022-09-17T17:29:54.531Z,9.7
2022-09-17T17:35:55.392Z,9.8
2022-09-17T17:41:55.685Z,9.6
2022-09-17T17:47:56.802Z,9.5
2022-09-17T17:53:56.184Z,9.5
2022-09-17T17:59:54.614Z,9.4
2022-09-17T18:05:54.785Z,9.3
2022-09-17T18:11:55.838Z,9
2022-09-17T18:17:55.968Z,9
2022-09-17T18:23:57.651Z,8.7
2022-09-17T18:29:55.848Z,8.5
2022-09-17T18:35:54.931Z,8.5
2022-09-17T18:41:54.845Z,8.4
2022-09-17T18:47:56.067Z,8.4
2022-09-17T18:53:55.363Z,8.6
2022-09-17T18:59:56.512Z,8.7
2022-09-17T19:05:55.101Z,9
2022-09-17T19:11:55.877Z,9.2
2022-09-17T19:17:54.591Z,9.2
2022-09-17T19:23:56.364Z,9.3
2022-09-17T19:29:55.904Z,9.6
2022-09-17T19:35:55.695Z,9.2
2022-09-17T19:41:58.245Z,8.7
2022-09-17T19:47:55.849Z,8.6
2022-09-17T19:53:57.288Z,8.6
2022-09-17T19:59:55.141Z,8.4
2022-09-17T20:05:55.405Z,7.8
2022-09-17T20:11:54.880Z,7.9
2022-09-17T20:17:54.771Z,8
2022-09-17T20:23:54.901Z,7.9
2022-09-17T20:29:55.254Z,8
2022-09-17T20:35:56.514Z,8
2022-09-17T20:41:54.638Z,8.3
2022-09-17T20:47:54.864Z,8.2
2022-09-17T20:53:54.715Z,8.4
2022-09-17T20:59:57.129Z,8.4
2022-09-17T21:05:56.397Z,8.4
2022-09-17T21:11:55.917Z,8.3
2022-09-17T21:17:54.774Z,8.5
2022-09-17T21:23:54.625Z,8.4
2022-09-17T21:29:56.546Z,8.5
2022-09-17T21:35:54.774Z,8.5
2022-09-17T21:41:54.641Z,8.4
2022-09-17T21:47:54.646Z,8.6
2022-09-17T21:53:54.430Z,8.5
2022-09-17T21:59:55.453Z,8.4
2022-09-17T22:05:55.150Z,8.6
2022-09-17T22:11:55.220Z,8.7
2022-09-17T22:17:54.715Z,8.8
2022-09-17T22:23:55.556Z,8.9
2022-09-17T22:29:54.630Z,8.9
2022-09-17T22:35:55.778Z,8.9
2022-09-17T22:41:56.242Z,8.9
2022-09-17T22:47:55.081Z,8.9
2022-09-17T22:53:55.943Z,8.9
2022-09-17T22:59:54.891Z,8.9
2022-09-17T23:05:56.493Z,9
2022-09-17T23:12:00.643Z,9
2022-09-17T23:17:54.860Z,8.9
2022-09-17T23:23:55.348Z,9.1
2022-09-17T23:29:55.950Z,9.1
2022-09-17T23:35:57.010Z,9.2
2022-09-17T23:41:59.890Z,9.1
2022-09-17T23:47:55.519Z,9.2
2022-09-17T23:53:59.923Z,9.2
2022-09-17T23:59:54.918Z,9.3
